KPZQ METAR Reports


Rogers City, Presque Isle County Airport, MI, United States (KPZQ) 45-24-25N 083-48-46W
Dec 13, 2018 - 05:35 PM EST / 2018.12.13 2235 UTC
Wind: from the SSE (160 degrees) at 3 MPH (3 KT):0
Visibility: 5 mile(s):0
Sky conditions: overcast
Weather: mist
Temperature: 33.4 F (0.8 C)
Dew Point: 30.4 F (-0.9 C)
Relative Humidity: 88%
Pressure (altimeter): 30.16 in. Hg (1021 hPa)
ob: KPZQ 132235Z AUTO 16003KT 5SM BR OVC019 01/M01 A3016 RMK AO2 T00081009
cycle: 22

 

Rogers City METAR Meteogram

Weather Chart

Nearby METAR Reports

KPZQ - Rogers City, Michigan, USA
Distance from station: SSW 1mi, 2km
Updated: Thu, 13-Dec-2018 5:35pm EST
Mist, Overcast
Mist, Overcast
 Wind from SSE
Wind: SSE 3 mph , 6 km/h
Temperature: 34°F , 1°C
Dew Point: 30°F , -1°C
Humidity: 87%
Barometer: 30.16 inHg , 1021.3 hPa
Summary: Mist
Clouds: Overcast
Visibility: 5 miles , 8 km
Cloud details: Overcast 1900 ft
2018/12/13 22:35 KPZQ 132235Z AUTO 16003KT 5SM BR OVC019 01/M01 A3016 RMK AO2 T00081009
KAPN - Alpena, Michigan, USA
Distance from station: SSE 27mi, 43km
Updated: Thu, 13-Dec-2018 4:54pm EST
NOT Current
Haze, Overcast
Haze, Overcast
 Wind from SSE
Wind: SSE 5 mph , 7 km/h
Temperature: 36°F , 2°C
Wind Chill: 32°F , 0°C
Dew Point: 30°F , -1°C
Humidity: 81%
Barometer: 30.16 inHg , 1021.3 hPa
Summary: Haze
Clouds: Overcast
Visibility: 6 miles , 10 km
Cloud details: Overcast 1900 ft
2018/12/13 21:54 KAPN 132154Z AUTO 15004KT 6SM HZ OVC019 02/M01 A3016 RMK AO2 SLP219 T00171011
 
KSLH - Cheboygan, Michigan, USA
Distance from station: WNW 38mi, 61km
Updated: Thu, 13-Dec-2018 5:35pm EST
Overcast
Overcast
 Wind from calm
Wind: Calm
Temperature: 34°F , 1°C
Dew Point: 30°F , -1°C
Humidity: 87%
Barometer: 30.13 inHg , 1020.3 hPa
Clouds: Overcast
Visibility: 7 miles , 11 km
Cloud details: Overcast 2200 ft
2018/12/13 22:35 KSLH 132235Z AUTO 00000KT 7SM OVC022 01/M01 A3013 RMK AO2 T00101010
KDRM - Drummond Is, Michigan, USA
Distance from station: N 40mi, 65km
Updated: Thu, 13-Dec-2018 5:35pm EST
Overcast
Overcast
 Wind from S
Wind: S 5 mph , 7 km/h
Temperature: 34°F , 1°C
Wind Chill: 29°F , -2°C
Dew Point: 32°F , 0°C
Humidity: 93%
Barometer: 30.14 inHg , 1020.7 hPa
Clouds: Overcast
Visibility: 7 miles , 11 km
Cloud details: Overcast 1200 ft
2018/12/13 22:35 KDRM 132235Z AUTO 18004KT 7SM OVC012 01/00 A3014 RMK AO2 T00111005
 
KPLN - Pellston, Michigan, USA
Distance from station: WNW 49mi, 79km
Updated: Thu, 13-Dec-2018 4:54pm EST
NOT Current
Overcast
Overcast
 Wind from SSW
Wind: SSW 3 mph , 6 km/h
Temperature: 36°F , 2°C
Dew Point: 30°F , -1°C
Humidity: 81%
Barometer: 30.13 inHg , 1020.3 hPa
Clouds: Overcast
Visibility: 7 miles , 11 km
Cloud details: Overcast 2100 ft
2018/12/13 21:54 KPLN 132154Z AUTO 20003KT 7SM OVC021 02/M01 A3013 RMK AO2 SLP211 T00171011
KMCD - Mackinac Island, Michigan, USA
Distance from station: NW 50mi, 80km
Updated: Thu, 13-Dec-2018 5:35pm EST
Overcast
Overcast
 Wind from S
Wind: S 5 mph , 7 km/h
Temperature: 34°F , 1°C
Wind Chill: 29°F , -2°C
Dew Point: 27°F , -3°C
Humidity: 75%
Barometer: 30.13 inHg , 1020.3 hPa
Clouds: Overcast
Visibility: 7 miles , 11 km
Cloud details: Overcast 2000 ft
2018/12/13 22:35 KMCD 132235Z AUTO 17004KT 7SM OVC020 01/M03 A3013 RMK AO2 T00101030